createdAt,value
2023-05-21T00:01:46.031Z,22.50
2023-05-21T00:04:15.916Z,22.50
2023-05-21T00:06:45.210Z,22.50
2023-05-21T00:09:14.362Z,22.50
2023-05-21T00:11:43.684Z,22.50
2023-05-21T00:14:12.915Z,22.50
2023-05-21T00:16:42.212Z,22.50
2023-05-21T00:19:13.065Z,22.50
2023-05-21T00:21:42.380Z,22.50
2023-05-21T00:24:11.740Z,22.50
2023-05-21T00:26:40.988Z,22.50
2023-05-21T00:29:10.318Z,22.50
2023-05-21T00:31:39.778Z,22.50
2023-05-21T00:34:09.091Z,22.50
2023-05-21T00:36:40.700Z,22.50
2023-05-21T00:39:09.938Z,22.50
2023-05-21T00:41:40.294Z,22.50
2023-05-21T00:44:09.879Z,22.50
2023-05-21T00:46:49.026Z,22.50
2023-05-21T00:49:18.643Z,22.50
2023-05-21T00:51:52.324Z,22.50
2023-05-21T00:54:21.538Z,22.50
2023-05-21T00:56:52.352Z,22.50
2023-05-21T00:59:21.659Z,22.50
2023-05-21T01:01:56.255Z,22.40
2023-05-21T01:04:25.691Z,22.50
2023-05-21T01:06:56.617Z,22.40
2023-05-21T01:09:26.603Z,22.50
2023-05-21T01:11:57.084Z,22.40
2023-05-21T01:14:26.735Z,22.50
2023-05-21T01:16:56.078Z,22.40
2023-05-21T01:19:26.472Z,22.40
2023-05-21T01:22:02.112Z,22.40
2023-05-21T01:24:32.992Z,22.40
2023-05-21T01:27:05.452Z,22.40
2023-05-21T01:29:35.833Z,22.40
2023-05-21T01:32:17.318Z,22.40
2023-05-21T01:34:54.959Z,22.40
2023-05-21T01:37:28.873Z,22.40
2023-05-21T01:40:07.180Z,22.40
2023-05-21T01:42:39.009Z,22.40
2023-05-21T01:45:09.945Z,22.40
2023-05-21T01:47:41.209Z,22.40
2023-05-21T01:50:13.120Z,22.40
2023-05-21T01:52:51.126Z,22.40
2023-05-21T01:55:24.937Z,22.40
2023-05-21T01:57:55.139Z,22.40
2023-05-21T02:00:25.642Z,22.40
2023-05-21T02:02:55.198Z,22.40
2023-05-21T02:05:24.615Z,22.40
2023-05-21T02:07:54.207Z,22.40
2023-05-21T02:10:25.023Z,22.40
2023-05-21T02:12:54.514Z,22.40
2023-05-21T02:15:25.049Z,22.40
2023-05-21T02:17:54.503Z,22.40
2023-05-21T02:20:24.106Z,22.40
2023-05-21T02:22:56.038Z,22.40
2023-05-21T02:25:26.716Z,22.40
2023-05-21T02:27:56.974Z,22.40
2023-05-21T02:30:26.366Z,22.40
2023-05-21T02:32:59.117Z,22.40
2023-05-21T02:35:28.579Z,22.40
2023-05-21T02:37:59.647Z,22.30
2023-05-21T02:40:30.507Z,22.40
2023-05-21T02:42:59.872Z,22.30
2023-05-21T02:45:31.637Z,22.30
2023-05-21T02:48:01.362Z,22.40
2023-05-21T02:50:31.981Z,22.40
2023-05-21T02:53:02.057Z,22.40
2023-05-21T02:55:33.795Z,22.40
2023-05-21T02:58:03.955Z,22.30
2023-05-21T03:00:33.263Z,22.30
2023-05-21T03:03:03.261Z,22.30
2023-05-21T03:05:32.784Z,22.30
2023-05-21T03:08:02.011Z,22.30
2023-05-21T03:10:33.093Z,22.30
2023-05-21T03:13:06.391Z,22.30
2023-05-21T03:15:39.587Z,22.30
2023-05-21T03:18:09.072Z,22.30
2023-05-21T03:20:46.669Z,22.30
2023-05-21T03:23:16.762Z,22.30
2023-05-21T03:25:50.994Z,22.30
2023-05-21T03:28:26.162Z,22.30
2023-05-21T03:30:58.525Z,22.30
2023-05-21T03:33:51.372Z,22.30
2023-05-21T03:36:25.757Z,22.30
2023-05-21T03:38:55.199Z,22.30
2023-05-21T03:41:26.509Z,22.30
2023-05-21T03:44:01.959Z,22.30
2023-05-21T03:46:38.388Z,22.30
2023-05-21T03:49:14.935Z,22.30
2023-05-21T03:51:44.522Z,22.30
2023-05-21T03:54:17.896Z,22.30
2023-05-21T03:56:49.526Z,22.30
2023-05-21T03:59:18.899Z,22.20
2023-05-21T04:01:48.606Z,22.30
2023-05-21T04:04:19.735Z,22.20
2023-05-21T04:06:49.813Z,22.20
2023-05-21T04:09:19.006Z,22.20
2023-05-21T04:11:49.729Z,22.20
2023-05-21T04:14:18.928Z,22.20
2023-05-21T04:16:49.406Z,22.20
2023-05-21T04:19:18.636Z,22.20
2023-05-21T04:21:49.240Z,22.20
2023-05-21T04:24:18.595Z,22.20
2023-05-21T04:26:54.394Z,22.20
2023-05-21T04:29:23.733Z,22.20
2023-05-21T04:31:52.924Z,22.20
2023-05-21T04:34:22.253Z,22.20
2023-05-21T04:36:52.187Z,22.20
2023-05-21T04:39:21.857Z,22.20
2023-05-21T04:41:55.642Z,22.20
2023-05-21T04:44:27.158Z,22.20
2023-05-21T04:46:57.671Z,22.20
2023-05-21T04:49:27.235Z,22.20
2023-05-21T04:51:56.926Z,22.20
2023-05-21T04:54:28.102Z,22.20
2023-05-21T04:56:58.312Z,22.20
2023-05-21T04:59:29.122Z,22.10
2023-05-21T05:01:58.348Z,22.20
2023-05-21T05:04:27.630Z,22.20
2023-05-21T05:06:56.895Z,22.20
2023-05-21T05:09:26.102Z,22.20
2023-05-21T05:11:55.709Z,22.20
2023-05-21T05:14:24.942Z,22.20
2023-05-21T05:17:00.079Z,22.20
2023-05-21T05:19:30.306Z,22.20
2023-05-21T05:21:59.645Z,22.20
2023-05-21T05:24:29.145Z,22.20
2023-05-21T05:26:59.013Z,22.20
2023-05-21T05:29:28.313Z,22.20
2023-05-21T05:31:58.983Z,22.20
2023-05-21T05:34:28.322Z,22.20
2023-05-21T05:36:58.267Z,22.20
2023-05-21T05:39:27.566Z,22.20
2023-05-21T05:41:56.862Z,22.20
2023-05-21T05:44:26.414Z,22.20
2023-05-21T05:46:56.274Z,22.20
2023-05-21T05:49:26.901Z,22.20
2023-05-21T05:51:56.824Z,22.20
2023-05-21T05:54:26.132Z,22.20
2023-05-21T05:56:55.359Z,22.20
2023-05-21T05:59:24.752Z,22.20
2023-05-21T06:01:58.540Z,22.20
2023-05-21T06:04:30.350Z,22.20
2023-05-21T06:07:00.497Z,22.20
2023-05-21T06:09:29.761Z,22.20
2023-05-21T06:11:59.211Z,22.20
2023-05-21T06:14:28.536Z,22.20
2023-05-21T06:16:57.721Z,22.20
2023-05-21T06:19:30.345Z,22.20
2023-05-21T06:21:59.758Z,22.20
2023-05-21T06:24:28.885Z,22.20
2023-05-21T06:26:58.465Z,22.20
2023-05-21T06:29:27.812Z,22.20
2023-05-21T06:31:57.501Z,22.20
2023-05-21T06:34:27.406Z,22.20
2023-05-21T06:36:58.111Z,22.20
2023-05-21T06:39:27.458Z,22.20
2023-05-21T06:41:57.639Z,22.20
2023-05-21T06:44:46.244Z,22.20
2023-05-21T06:47:35.814Z,22.20
2023-05-21T06:50:05.776Z,22.20
2023-05-21T06:52:36.751Z,22.20
2023-05-21T06:55:07.359Z,22.20
2023-05-21T06:58:02.447Z,22.20
2023-05-21T07:00:33.234Z,22.20
2023-05-21T07:03:02.687Z,22.30
2023-05-21T07:05:36.364Z,22.30
2023-05-21T07:08:11.938Z,22.20
2023-05-21T07:10:42.612Z,22.20
2023-05-21T07:13:12.065Z,22.20
2023-05-21T07:15:41.318Z,22.30
2023-05-21T07:18:11.971Z,22.20
2023-05-21T07:20:41.517Z,22.20
2023-05-21T07:23:15.765Z,22.30
2023-05-21T07:25:45.035Z,22.30
2023-05-21T07:28:15.346Z,22.30
2023-05-21T07:30:45.327Z,22.30
2023-05-21T07:33:20.796Z,22.30
2023-05-21T07:35:50.637Z,22.30
2023-05-21T07:38:21.924Z,22.30
2023-05-21T07:40:52.196Z,22.40
2023-05-21T07:43:21.546Z,22.40
2023-05-21T07:45:51.577Z,22.40
2023-05-21T07:48:29.524Z,22.40
2023-05-21T07:51:02.880Z,22.40
2023-05-21T07:53:34.837Z,22.40
2023-05-21T07:56:09.818Z,22.50
2023-05-21T07:58:39.671Z,22.50
2023-05-21T08:01:08.956Z,22.50
2023-05-21T08:03:38.242Z,22.60
2023-05-21T08:06:07.764Z,22.60
2023-05-21T08:08:38.728Z,22.60
2023-05-21T08:11:08.689Z,22.70
2023-05-21T08:13:38.538Z,22.80
2023-05-21T08:16:14.280Z,22.70
2023-05-21T08:18:48.249Z,22.70
2023-05-21T08:21:18.529Z,22.70
2023-05-21T08:23:49.625Z,22.70
2023-05-21T08:26:19.385Z,22.70
2023-05-21T08:28:48.610Z,22.70
2023-05-21T08:31:20.042Z,22.80
2023-05-21T08:33:52.818Z,22.80
2023-05-21T08:36:27.410Z,22.80
2023-05-21T08:39:03.800Z,22.80
2023-05-21T08:41:41.116Z,22.80
2023-05-21T08:44:13.963Z,22.80
2023-05-21T08:46:46.858Z,22.70
2023-05-21T08:49:19.062Z,22.70
2023-05-21T08:51:50.418Z,22.80
2023-05-21T08:54:21.293Z,22.80
2023-05-21T08:56:50.851Z,22.80
2023-05-21T08:59:24.283Z,22.80
2023-05-21T09:01:58.508Z,22.80
2023-05-21T09:04:34.961Z,22.80
2023-05-21T09:07:05.097Z,22.80
2023-05-21T09:09:59.930Z,22.90
2023-05-21T09:12:30.056Z,22.90
2023-05-21T09:15:02.497Z,22.90
2023-05-21T09:17:35.786Z,22.90
2023-05-21T09:20:25.496Z,22.90
2023-05-21T09:23:03.856Z,22.90
2023-05-21T09:25:35.145Z,22.90
2023-05-21T09:28:13.929Z,22.90
2023-05-21T09:30:47.138Z,22.90
2023-05-21T09:33:27.124Z,22.90
2023-05-21T09:35:57.047Z,22.90
2023-05-21T09:38:28.318Z,22.90
2023-05-21T09:40:59.159Z,22.90
2023-05-21T09:43:30.145Z,22.90
2023-05-21T09:46:02.407Z,22.90
2023-05-21T09:48:36.641Z,22.90
2023-05-21T09:51:15.055Z,22.90
2023-05-21T09:53:52.583Z,22.90
2023-05-21T09:56:25.732Z,22.90
2023-05-21T09:58:56.928Z,22.80
2023-05-21T10:01:26.751Z,22.80
2023-05-21T10:03:57.813Z,22.90
2023-05-21T10:06:28.926Z,22.90
2023-05-21T10:09:01.633Z,22.80
2023-05-21T10:11:35.199Z,22.80
2023-05-21T10:14:07.851Z,22.80
2023-05-21T10:16:38.428Z,22.70
2023-05-21T10:19:11.259Z,22.70
2023-05-21T10:21:41.349Z,22.70
2023-05-21T10:24:11.685Z,22.70
2023-05-21T10:26:43.338Z,22.70
2023-05-21T10:29:13.880Z,22.80
2023-05-21T10:31:54.904Z,22.80
2023-05-21T10:34:28.426Z,22.80
2023-05-21T10:36:58.875Z,22.70
2023-05-21T10:39:28.713Z,22.80
2023-05-21T10:42:09.933Z,22.80
2023-05-21T10:44:51.176Z,22.90
2023-05-21T10:48:06.344Z,22.90
2023-05-21T10:50:54.713Z,22.90
2023-05-21T10:53:30.376Z,23.00
2023-05-21T10:56:12.399Z,23.00
2023-05-21T10:59:02.265Z,23.00
2023-05-21T11:01:35.829Z,23.00
2023-05-21T11:04:06.888Z,23.10
2023-05-21T11:06:36.080Z,23.00
2023-05-21T11:09:14.797Z,23.10
2023-05-21T11:11:48.788Z,23.20
2023-05-21T11:14:41.413Z,23.10
2023-05-21T11:17:14.935Z,23.10
2023-05-21T11:19:48.557Z,23.20
2023-05-21T11:22:25.585Z,23.10
2023-05-21T11:24:55.900Z,23.20
2023-05-21T11:27:35.428Z,23.20
2023-05-21T11:30:11.457Z,23.30
2023-05-21T11:32:42.343Z,23.30
2023-05-21T11:35:16.469Z,23.20
2023-05-21T11:37:55.059Z,23.20
2023-05-21T11:40:31.023Z,23.20
2023-05-21T11:43:00.701Z,23.20
2023-05-21T11:45:34.257Z,23.30
2023-05-21T11:48:07.834Z,23.30
2023-05-21T11:50:37.820Z,23.30
2023-05-21T11:53:09.219Z,23.30
2023-05-21T11:55:57.884Z,23.30
2023-05-21T11:58:29.103Z,23.30
2023-05-21T12:00:59.972Z,23.20
2023-05-21T12:03:30.689Z,23.20
2023-05-21T12:06:07.021Z,23.20
2023-05-21T12:08:38.535Z,23.20
2023-05-21T12:11:08.020Z,23.20
2023-05-21T12:13:37.959Z,23.20
2023-05-21T12:16:10.757Z,23.20
2023-05-21T12:18:40.616Z,23.20
2023-05-21T12:21:12.366Z,23.10
2023-05-21T12:23:42.235Z,23.10
2023-05-21T12:26:12.010Z,23.10
2023-05-21T12:28:42.375Z,23.10
2023-05-21T12:31:18.847Z,23.10
2023-05-21T12:33:50.481Z,23.10
2023-05-21T12:36:28.865Z,23.10
2023-05-21T12:38:59.570Z,23.10
2023-05-21T12:41:29.237Z,23.10
2023-05-21T12:44:00.038Z,23.10
2023-05-21T12:46:31.313Z,23.10
2023-05-21T12:49:01.041Z,23.10
2023-05-21T12:51:40.212Z,23.10
2023-05-21T12:54:14.604Z,23.10
2023-05-21T12:56:47.797Z,23.10
2023-05-21T12:59:17.089Z,23.10
2023-05-21T13:01:50.739Z,23.10
2023-05-21T13:04:22.729Z,23.20
2023-05-21T13:06:56.983Z,23.20
2023-05-21T13:13:41.298Z,23.50
2023-05-21T13:16:12.705Z,23.50
2023-05-21T13:18:43.541Z,23.50
2023-05-21T13:21:12.842Z,23.50
2023-05-21T13:23:42.149Z,23.50
2023-05-21T13:26:15.496Z,23.50
2023-05-21T13:28:44.801Z,23.50
2023-05-21T13:31:15.914Z,23.40
2023-05-21T13:33:46.829Z,23.40
2023-05-21T13:36:16.258Z,23.40
2023-05-21T13:38:45.512Z,23.30
2023-05-21T13:41:14.831Z,23.40
2023-05-21T13:43:44.685Z,23.30
2023-05-21T13:46:13.908Z,23.30
2023-05-21T13:48:43.496Z,23.30
2023-05-21T13:51:19.835Z,23.40
2023-05-21T13:53:56.804Z,23.30
2023-05-21T13:56:26.485Z,23.30
2023-05-21T13:58:55.687Z,23.30
2023-05-21T14:01:25.030Z,23.40
2023-05-21T14:03:54.401Z,23.40
2023-05-21T14:06:25.092Z,23.40
2023-05-21T14:08:54.464Z,23.40
2023-05-21T14:11:23.756Z,23.40
2023-05-21T14:13:53.387Z,23.40
2023-05-21T14:16:25.110Z,23.30
2023-05-21T14:18:54.632Z,23.30
2023-05-21T14:21:25.889Z,23.40
2023-05-21T14:23:55.224Z,23.40
2023-05-21T14:26:24.410Z,23.40
2023-05-21T14:28:53.676Z,23.40
2023-05-21T14:31:23.479Z,23.30
2023-05-21T14:33:53.078Z,23.40
2023-05-21T14:36:22.338Z,23.30
2023-05-21T14:38:52.956Z,23.20
2023-05-21T14:41:25.245Z,23.20
2023-05-21T14:43:54.845Z,23.20
2023-05-21T14:46:24.407Z,23.20
2023-05-21T14:48:54.919Z,23.20
2023-05-21T14:51:24.199Z,23.20
2023-05-21T14:53:55.911Z,23.10
2023-05-21T14:56:26.956Z,23.10
2023-05-21T14:58:56.536Z,23.10
2023-05-21T15:01:25.887Z,23.10
2023-05-21T15:03:57.106Z,23.10
2023-05-21T15:06:26.703Z,23.10
2023-05-21T15:08:57.370Z,23.10
2023-05-21T15:11:26.638Z,23.10
2023-05-21T15:13:55.951Z,23.10
2023-05-21T15:16:25.444Z,23.10
2023-05-21T15:18:55.098Z,23.10
2023-05-21T15:21:26.466Z,23.10
2023-05-21T15:23:58.874Z,23.10
2023-05-21T15:26:28.495Z,23.10
2023-05-21T15:28:59.185Z,23.20
2023-05-21T15:31:28.626Z,23.20
2023-05-21T15:34:00.295Z,23.20
2023-05-21T15:36:29.780Z,23.20
2023-05-21T15:39:03.841Z,23.20
2023-05-21T15:41:38.526Z,23.20
2023-05-21T15:44:07.868Z,23.20
2023-05-21T15:46:37.193Z,23.20
2023-05-21T15:49:32.718Z,23.20
2023-05-21T15:52:03.223Z,23.20
2023-05-21T15:54:33.967Z,23.20
2023-05-21T15:57:03.321Z,23.20
2023-05-21T15:59:32.513Z,23.20
2023-05-21T16:02:01.908Z,23.20
2023-05-21T16:04:33.147Z,23.20
2023-05-21T16:07:02.478Z,23.20
2023-05-21T16:09:31.692Z,23.30
2023-05-21T16:12:02.466Z,23.30
2023-05-21T16:14:31.842Z,23.30
2023-05-21T16:17:01.154Z,23.20
2023-05-21T16:19:30.580Z,23.30
2023-05-21T16:21:59.948Z,23.30
2023-05-21T16:24:29.247Z,23.30
2023-05-21T16:26:58.618Z,23.40
2023-05-21T16:29:29.297Z,23.30
2023-05-21T16:31:58.944Z,23.30
2023-05-21T16:34:28.247Z,23.30
2023-05-21T16:36:58.718Z,23.30
2023-05-21T16:39:28.076Z,23.30
2023-05-21T16:41:59.875Z,23.30
2023-05-21T16:44:32.181Z,23.30
2023-05-21T16:47:02.215Z,23.40
2023-05-21T16:49:31.464Z,23.30
2023-05-21T16:52:01.826Z,23.30
2023-05-21T16:54:31.139Z,23.40
2023-05-21T16:57:00.373Z,23.40
2023-05-21T16:59:31.529Z,23.30
2023-05-21T17:02:00.983Z,23.30
2023-05-21T17:04:31.138Z,23.30
2023-05-21T17:07:00.387Z,23.30
2023-05-21T17:09:29.642Z,23.30
2023-05-21T17:11:59.090Z,23.30
2023-05-21T17:17:02.993Z,23.30
2023-05-21T17:19:32.385Z,23.30
2023-05-21T17:22:01.752Z,23.30
2023-05-21T17:24:31.063Z,23.20
2023-05-21T17:27:00.238Z,23.30
2023-05-21T17:29:29.910Z,23.30
2023-05-21T17:31:59.338Z,23.30
2023-05-21T17:34:30.708Z,23.30
2023-05-21T17:37:00.611Z,23.20
2023-05-21T17:39:29.880Z,23.30
2023-05-21T17:42:00.117Z,23.20
2023-05-21T17:44:29.372Z,23.20
2023-05-21T17:46:58.639Z,23.20
2023-05-21T17:49:29.363Z,23.30
2023-05-21T17:52:00.340Z,23.20
2023-05-21T17:54:29.652Z,23.20
2023-05-21T17:56:59.009Z,23.20
2023-05-21T17:59:28.343Z,23.20
2023-05-21T18:02:00.159Z,23.20
2023-05-21T18:04:31.026Z,23.20
2023-05-21T18:07:00.404Z,23.10
2023-05-21T18:09:29.601Z,23.10
2023-05-21T18:11:59.901Z,23.10
2023-05-21T18:14:29.749Z,23.10
2023-05-21T18:16:58.981Z,23.10
2023-05-21T18:19:32.525Z,23.10
2023-05-21T18:22:01.831Z,23.10
2023-05-21T18:24:31.048Z,23.10
2023-05-21T18:27:00.819Z,23.10
2023-05-21T18:29:30.033Z,23.10
2023-05-21T18:31:59.390Z,23.10
2023-05-21T18:34:30.057Z,23.10
2023-05-21T18:37:00.770Z,23.10
2023-05-21T18:39:30.094Z,23.10
2023-05-21T18:42:12.118Z,23.00
2023-05-21T18:44:42.475Z,23.10
2023-05-21T18:47:12.447Z,23.00
2023-05-21T18:49:43.128Z,23.10
2023-05-21T18:52:12.412Z,23.10
2023-05-21T18:54:41.652Z,23.10
2023-05-21T18:57:10.823Z,23.10
2023-05-21T18:59:40.982Z,23.10
2023-05-21T19:02:11.302Z,23.10
2023-05-21T19:04:40.766Z,23.10
2023-05-21T19:07:11.446Z,23.00
2023-05-21T19:09:41.079Z,23.00
2023-05-21T19:12:11.098Z,23.10
2023-05-21T19:14:45.161Z,23.10
2023-05-21T19:17:15.034Z,23.10
2023-05-21T19:19:44.662Z,23.10
2023-05-21T19:22:18.438Z,23.10
2023-05-21T19:25:05.965Z,23.10
2023-05-21T19:28:19.622Z,23.10
2023-05-21T19:31:05.917Z,23.10
2023-05-21T19:34:06.005Z,23.10
2023-05-21T19:36:51.571Z,23.10
2023-05-21T19:39:23.496Z,23.10
2023-05-21T19:41:53.085Z,23.10
2023-05-21T19:44:22.432Z,23.10
2023-05-21T19:46:51.711Z,23.10
2023-05-21T19:49:20.951Z,23.10
2023-05-21T19:51:56.280Z,23.10
2023-05-21T19:54:28.053Z,23.10
2023-05-21T19:56:57.552Z,23.10
2023-05-21T19:59:26.730Z,23.20
2023-05-21T20:01:56.477Z,23.10
2023-05-21T20:04:25.727Z,23.20
2023-05-21T20:06:55.011Z,23.20
2023-05-21T20:09:24.428Z,23.20
2023-05-21T20:11:55.105Z,23.20
2023-05-21T20:14:24.373Z,23.20
2023-05-21T20:16:53.714Z,23.20
2023-05-21T20:19:23.690Z,23.20
2023-05-21T20:21:52.924Z,23.20
2023-05-21T20:24:22.080Z,23.20
2023-05-21T20:26:51.356Z,23.20
2023-05-21T20:29:21.999Z,23.20
2023-05-21T20:31:51.169Z,23.20
2023-05-21T20:34:20.937Z,23.20
2023-05-21T20:36:50.172Z,23.20
2023-05-21T20:39:21.689Z,23.20
2023-05-21T20:41:51.058Z,23.20
2023-05-21T20:44:22.423Z,23.20
2023-05-21T20:46:52.744Z,23.20
2023-05-21T20:49:25.027Z,23.20
2023-05-21T20:51:54.329Z,23.20
2023-05-21T20:54:23.575Z,23.20
2023-05-21T20:56:54.974Z,23.20
2023-05-21T20:59:27.074Z,23.20
2023-05-21T21:01:57.397Z,23.20
2023-05-21T21:04:26.972Z,23.20
2023-05-21T21:06:56.305Z,23.10
2023-05-21T21:09:25.427Z,23.10
2023-05-21T21:11:54.681Z,23.10
2023-05-21T21:14:25.275Z,23.10
2023-05-21T21:16:54.557Z,23.10
2023-05-21T21:19:23.869Z,23.10
2023-05-21T21:21:53.322Z,23.10
2023-05-21T21:24:22.530Z,23.10
2023-05-21T21:26:51.668Z,23.10
2023-05-21T21:29:21.038Z,23.10
2023-05-21T21:31:51.742Z,23.10
2023-05-21T21:34:23.576Z,23.10
2023-05-21T21:36:53.033Z,23.10
2023-05-21T21:39:22.241Z,23.10
2023-05-21T21:41:51.519Z,23.10
2023-05-21T21:44:20.811Z,23.10
2023-05-21T21:46:52.534Z,23.10
2023-05-21T21:49:22.077Z,23.10
2023-05-21T21:51:51.453Z,23.10
2023-05-21T21:54:22.584Z,23.00
2023-05-21T21:56:52.116Z,23.10
2023-05-21T21:59:22.503Z,23.10
2023-05-21T22:01:53.345Z,23.10
2023-05-21T22:04:25.781Z,23.00
2023-05-21T22:06:55.083Z,23.00
2023-05-21T22:09:24.284Z,23.00
2023-05-21T22:11:53.899Z,23.00
2023-05-21T22:14:23.411Z,23.00
2023-05-21T22:16:55.647Z,23.00
2023-05-21T22:19:24.966Z,23.00
2023-05-21T22:21:55.377Z,23.00
2023-05-21T22:24:31.340Z,23.00
2023-05-21T22:27:01.512Z,23.00
2023-05-21T22:29:30.753Z,23.00
2023-05-21T22:32:01.440Z,23.00
2023-05-21T22:34:30.614Z,23.00
2023-05-21T22:36:59.849Z,23.00
2023-05-21T22:39:29.024Z,23.00
2023-05-21T22:42:00.233Z,23.00
2023-05-21T22:44:31.766Z,23.00
2023-05-21T22:47:03.548Z,23.00
2023-05-21T22:49:32.923Z,23.00
2023-05-21T22:52:05.354Z,22.90
2023-05-21T22:54:34.825Z,22.90
2023-05-21T22:57:04.662Z,22.90
2023-05-21T22:59:34.472Z,23.00
2023-05-21T23:02:05.417Z,22.90
2023-05-21T23:04:43.283Z,22.90
2023-05-21T23:07:14.250Z,22.90
2023-05-21T23:09:43.543Z,22.90
2023-05-21T23:12:13.583Z,22.90
2023-05-21T23:14:42.718Z,22.90
2023-05-21T23:17:13.383Z,22.90
2023-05-21T23:19:45.089Z,22.90
2023-05-21T23:22:14.554Z,22.90
2023-05-21T23:24:43.728Z,22.90
2023-05-21T23:27:12.930Z,22.90
2023-05-21T23:29:42.106Z,22.90
2023-05-21T23:32:12.721Z,22.90
2023-05-21T23:34:42.137Z,22.90
2023-05-21T23:37:11.359Z,22.90
2023-05-21T23:39:40.579Z,22.90
2023-05-21T23:42:09.950Z,22.90
2023-05-21T23:44:39.096Z,22.80
2023-05-21T23:47:08.490Z,22.90
2023-05-21T23:49:39.073Z,22.80
2023-05-21T23:52:09.008Z,22.90
2023-05-21T23:54:38.243Z,22.90
2023-05-21T23:57:07.743Z,22.90
2023-05-21T23:59:36.921Z,22.80
